sensor_id;sensor_type;location;lat;lon;timestamp;temperature;humidity
20891;DHT22;10605;52.968;8.844;2022-08-19T00:01:48;16.90;99.90
20891;DHT22;10605;52.968;8.844;2022-08-19T00:04:17;17.00;99.90
20891;DHT22;10605;52.968;8.844;2022-08-19T00:06:44;17.00;99.90
20891;DHT22;10605;52.968;8.844;2022-08-19T00:09:12;17.00;99.90
20891;DHT22;10605;52.968;8.844;2022-08-19T00:11:39;17.00;99.90
20891;DHT22;10605;52.968;8.844;2022-08-19T00:14:07;17.00;99.90
20891;DHT22;10605;52.968;8.844;2022-08-19T00:16:34;17.10;99.90
20891;DHT22;10605;52.968;8.844;2022-08-19T00:18:59;17.10;99.90
20891;DHT22;10605;52.968;8.844;2022-08-19T00:21:26;17.10;99.90
20891;DHT22;10605;52.968;8.844;2022-08-19T00:23:53;17.10;99.90
20891;DHT22;10605;52.968;8.844;2022-08-19T00:26:19;17.10;99.90
20891;DHT22;10605;52.968;8.844;2022-08-19T00:28:45;17.10;99.90
20891;DHT22;10605;52.968;8.844;2022-08-19T00:31:11;17.20;99.90
20891;DHT22;10605;52.968;8.844;2022-08-19T00:33:37;17.10;99.90
20891;DHT22;10605;52.968;8.844;2022-08-19T00:36:07;17.00;99.90
20891;DHT22;10605;52.968;8.844;2022-08-19T00:38:36;17.00;99.90
20891;DHT22;10605;52.968;8.844;2022-08-19T00:41:03;17.10;99.90
20891;DHT22;10605;52.968;8.844;2022-08-19T00:43:30;17.20;99.90
20891;DHT22;10605;52.968;8.844;2022-08-19T00:45:56;17.20;99.90
20891;DHT22;10605;52.968;8.844;2022-08-19T00:48:21;17.20;99.90
20891;DHT22;10605;52.968;8.844;2022-08-19T00:50:50;17.20;99.90
20891;DHT22;10605;52.968;8.844;2022-08-19T00:53:22;17.20;99.90
20891;DHT22;10605;52.968;8.844;2022-08-19T00:55:51;17.20;99.90
20891;DHT22;10605;52.968;8.844;2022-08-19T00:58:22;17.20;99.90
20891;DHT22;10605;52.968;8.844;2022-08-19T01:00:49;17.20;99.90
20891;DHT22;10605;52.968;8.844;2022-08-19T01:03:18;17.20;99.90
20891;DHT22;10605;52.968;8.844;2022-08-19T01:05:46;17.20;99.90
20891;DHT22;10605;52.968;8.844;2022-08-19T01:08:14;17.20;99.90
20891;DHT22;10605;52.968;8.844;2022-08-19T01:10:44;17.30;99.90
20891;DHT22;10605;52.968;8.844;2022-08-19T01:13:11;17.30;99.90
20891;DHT22;10605;52.968;8.844;2022-08-19T01:15:43;17.30;99.90
20891;DHT22;10605;52.968;8.844;2022-08-19T01:18:12;17.30;99.90
20891;DHT22;10605;52.968;8.844;2022-08-19T01:20:40;17.20;99.90
20891;DHT22;10605;52.968;8.844;2022-08-19T01:23:06;17.20;99.90
20891;DHT22;10605;52.968;8.844;2022-08-19T01:25:46;17.30;99.90
20891;DHT22;10605;52.968;8.844;2022-08-19T01:28:30;17.30;99.90
20891;DHT22;10605;52.968;8.844;2022-08-19T01:30:55;17.40;99.90
20891;DHT22;10605;52.968;8.844;2022-08-19T01:33:21;17.30;99.90
20891;DHT22;10605;52.968;8.844;2022-08-19T01:35:47;17.30;99.90
20891;DHT22;10605;52.968;8.844;2022-08-19T01:38:25;17.30;99.90
20891;DHT22;10605;52.968;8.844;2022-08-19T01:40:51;17.30;99.90
20891;DHT22;10605;52.968;8.844;2022-08-19T01:43:17;17.30;99.90
20891;DHT22;10605;52.968;8.844;2022-08-19T01:45:45;17.30;99.90
20891;DHT22;10605;52.968;8.844;2022-08-19T01:48:12;17.30;99.90
20891;DHT22;10605;52.968;8.844;2022-08-19T01:50:37;17.30;99.90
20891;DHT22;10605;52.968;8.844;2022-08-19T01:53:05;17.30;99.90
20891;DHT22;10605;52.968;8.844;2022-08-19T01:55:31;17.30;99.90
20891;DHT22;10605;52.968;8.844;2022-08-19T01:58:00;17.20;99.90
20891;DHT22;10605;52.968;8.844;2022-08-19T02:00:30;17.10;99.90
20891;DHT22;10605;52.968;8.844;2022-08-19T02:02:56;17.10;99.90
20891;DHT22;10605;52.968;8.844;2022-08-19T02:05:22;17.00;99.90
20891;DHT22;10605;52.968;8.844;2022-08-19T02:07:48;16.90;99.90
20891;DHT22;10605;52.968;8.844;2022-08-19T02:10:17;16.90;99.90
20891;DHT22;10605;52.968;8.844;2022-08-19T02:12:44;16.80;99.90
20891;DHT22;10605;52.968;8.844;2022-08-19T02:15:10;16.70;99.90
20891;DHT22;10605;52.968;8.844;2022-08-19T02:17:37;16.70;99.90
20891;DHT22;10605;52.968;8.844;2022-08-19T02:20:03;16.60;99.90
20891;DHT22;10605;52.968;8.844;2022-08-19T02:22:29;16.60;99.90
20891;DHT22;10605;52.968;8.844;2022-08-19T02:24:55;16.50;99.90
20891;DHT22;10605;52.968;8.844;2022-08-19T02:27:22;16.50;99.90
20891;DHT22;10605;52.968;8.844;2022-08-19T02:29:49;16.50;99.90
20891;DHT22;10605;52.968;8.844;2022-08-19T02:32:16;16.40;99.90
20891;DHT22;10605;52.968;8.844;2022-08-19T02:34:44;16.40;99.90
20891;DHT22;10605;52.968;8.844;2022-08-19T02:37:09;16.30;99.90
20891;DHT22;10605;52.968;8.844;2022-08-19T02:39:55;16.30;99.90
20891;DHT22;10605;52.968;8.844;2022-08-19T02:42:21;16.30;99.90
20891;DHT22;10605;52.968;8.844;2022-08-19T02:44:46;16.20;99.90
20891;DHT22;10605;52.968;8.844;2022-08-19T02:47:12;16.20;99.90
20891;DHT22;10605;52.968;8.844;2022-08-19T02:49:39;16.10;99.90
20891;DHT22;10605;52.968;8.844;2022-08-19T02:52:05;16.10;99.90
20891;DHT22;10605;52.968;8.844;2022-08-19T02:54:31;16.10;99.90
20891;DHT22;10605;52.968;8.844;2022-08-19T02:56:56;16.00;99.90
20891;DHT22;10605;52.968;8.844;2022-08-19T02:59:22;16.00;99.90
20891;DHT22;10605;52.968;8.844;2022-08-19T03:01:48;16.00;99.90
20891;DHT22;10605;52.968;8.844;2022-08-19T03:04:14;15.90;99.90
20891;DHT22;10605;52.968;8.844;2022-08-19T03:06:43;15.90;99.90
20891;DHT22;10605;52.968;8.844;2022-08-19T03:09:09;15.90;99.90
20891;DHT22;10605;52.968;8.844;2022-08-19T03:11:36;15.90;99.90
20891;DHT22;10605;52.968;8.844;2022-08-19T03:14:03;15.80;99.90
20891;DHT22;10605;52.968;8.844;2022-08-19T03:16:31;15.70;99.90
20891;DHT22;10605;52.968;8.844;2022-08-19T03:18:57;15.70;99.90
20891;DHT22;10605;52.968;8.844;2022-08-19T03:21:29;15.60;99.90
20891;DHT22;10605;52.968;8.844;2022-08-19T03:23:56;15.60;99.90
20891;DHT22;10605;52.968;8.844;2022-08-19T03:26:22;15.60;99.90
20891;DHT22;10605;52.968;8.844;2022-08-19T03:28:47;15.60;99.90
20891;DHT22;10605;52.968;8.844;2022-08-19T03:31:17;15.60;99.90
20891;DHT22;10605;52.968;8.844;2022-08-19T03:33:43;15.60;99.90
20891;DHT22;10605;52.968;8.844;2022-08-19T03:36:25;15.60;99.90
20891;DHT22;10605;52.968;8.844;2022-08-19T03:38:55;15.60;99.90
20891;DHT22;10605;52.968;8.844;2022-08-19T03:41:26;15.60;99.90
20891;DHT22;10605;52.968;8.844;2022-08-19T03:43:53;15.50;99.90
20891;DHT22;10605;52.968;8.844;2022-08-19T03:46:25;15.40;99.90
20891;DHT22;10605;52.968;8.844;2022-08-19T03:48:53;15.50;99.90
20891;DHT22;10605;52.968;8.844;2022-08-19T03:51:31;15.50;99.90
20891;DHT22;10605;52.968;8.844;2022-08-19T03:53:58;15.60;99.90
20891;DHT22;10605;52.968;8.844;2022-08-19T03:56:25;15.50;99.90
20891;DHT22;10605;52.968;8.844;2022-08-19T03:58:55;15.40;99.90
20891;DHT22;10605;52.968;8.844;2022-08-19T04:01:23;15.40;99.90
20891;DHT22;10605;52.968;8.844;2022-08-19T04:03:49;15.40;99.90
20891;DHT22;10605;52.968;8.844;2022-08-19T04:06:18;15.40;99.90
20891;DHT22;10605;52.968;8.844;2022-08-19T04:08:45;15.40;99.90
20891;DHT22;10605;52.968;8.844;2022-08-19T04:11:13;15.40;99.90
20891;DHT22;10605;52.968;8.844;2022-08-19T04:13:40;15.30;99.90
20891;DHT22;10605;52.968;8.844;2022-08-19T04:16:07;15.40;99.90
20891;DHT22;10605;52.968;8.844;2022-08-19T04:18:34;15.40;99.90
20891;DHT22;10605;52.968;8.844;2022-08-19T04:21:00;15.40;99.90
20891;DHT22;10605;52.968;8.844;2022-08-19T04:23:26;15.40;99.90
20891;DHT22;10605;52.968;8.844;2022-08-19T04:25:54;15.40;99.90
20891;DHT22;10605;52.968;8.844;2022-08-19T04:28:20;15.50;99.90
20891;DHT22;10605;52.968;8.844;2022-08-19T04:30:48;15.40;99.90
20891;DHT22;10605;52.968;8.844;2022-08-19T04:33:16;15.50;99.90
20891;DHT22;10605;52.968;8.844;2022-08-19T04:35:45;15.50;99.90
20891;DHT22;10605;52.968;8.844;2022-08-19T04:38:11;15.60;99.90
20891;DHT22;10605;52.968;8.844;2022-08-19T04:40:48;15.60;99.90
20891;DHT22;10605;52.968;8.844;2022-08-19T04:43:38;15.60;99.90
20891;DHT22;10605;52.968;8.844;2022-08-19T04:46:24;15.70;99.90
20891;DHT22;10605;52.968;8.844;2022-08-19T04:48:49;15.70;99.90
20891;DHT22;10605;52.968;8.844;2022-08-19T04:51:15;15.80;99.90
20891;DHT22;10605;52.968;8.844;2022-08-19T04:53:42;15.80;99.90
20891;DHT22;10605;52.968;8.844;2022-08-19T04:56:14;15.80;99.90
20891;DHT22;10605;52.968;8.844;2022-08-19T04:58:42;16.00;99.90
20891;DHT22;10605;52.968;8.844;2022-08-19T05:01:17;16.00;99.90
20891;DHT22;10605;52.968;8.844;2022-08-19T05:03:43;16.10;99.90
20891;DHT22;10605;52.968;8.844;2022-08-19T05:06:11;16.20;99.90
20891;DHT22;10605;52.968;8.844;2022-08-19T05:08:39;16.20;99.90
20891;DHT22;10605;52.968;8.844;2022-08-19T05:11:22;16.30;99.90
20891;DHT22;10605;52.968;8.844;2022-08-19T05:13:48;16.40;99.90
20891;DHT22;10605;52.968;8.844;2022-08-19T05:16:16;16.50;99.90
20891;DHT22;10605;52.968;8.844;2022-08-19T05:18:43;16.60;99.90
20891;DHT22;10605;52.968;8.844;2022-08-19T05:21:27;16.60;99.90
20891;DHT22;10605;52.968;8.844;2022-08-19T05:24:12;16.60;99.90
20891;DHT22;10605;52.968;8.844;2022-08-19T05:26:41;16.70;99.90
20891;DHT22;10605;52.968;8.844;2022-08-19T05:29:08;16.70;99.90
20891;DHT22;10605;52.968;8.844;2022-08-19T05:31:35;16.80;99.90
20891;DHT22;10605;52.968;8.844;2022-08-19T05:34:01;16.80;99.90
20891;DHT22;10605;52.968;8.844;2022-08-19T05:36:28;16.80;99.90
20891;DHT22;10605;52.968;8.844;2022-08-19T05:38:54;16.80;99.90
20891;DHT22;10605;52.968;8.844;2022-08-19T05:41:22;16.90;99.90
20891;DHT22;10605;52.968;8.844;2022-08-19T05:44:00;16.90;99.90
20891;DHT22;10605;52.968;8.844;2022-08-19T05:46:26;17.10;99.90
20891;DHT22;10605;52.968;8.844;2022-08-19T05:48:52;17.20;99.90
20891;DHT22;10605;52.968;8.844;2022-08-19T05:51:18;17.70;99.90
20891;DHT22;10605;52.968;8.844;2022-08-19T05:53:44;18.40;99.90
20891;DHT22;10605;52.968;8.844;2022-08-19T05:56:15;19.50;99.90
20891;DHT22;10605;52.968;8.844;2022-08-19T05:58:42;20.40;99.90
20891;DHT22;10605;52.968;8.844;2022-08-19T06:01:13;21.20;99.90
20891;DHT22;10605;52.968;8.844;2022-08-19T06:03:40;21.90;99.90
20891;DHT22;10605;52.968;8.844;2022-08-19T06:06:07;22.30;99.90
20891;DHT22;10605;52.968;8.844;2022-08-19T06:08:33;22.10;99.90
20891;DHT22;10605;52.968;8.844;2022-08-19T06:11:14;22.40;99.90
20891;DHT22;10605;52.968;8.844;2022-08-19T06:13:44;22.50;99.90
20891;DHT22;10605;52.968;8.844;2022-08-19T06:16:13;23.00;99.90
20891;DHT22;10605;52.968;8.844;2022-08-19T06:18:44;23.30;99.90
20891;DHT22;10605;52.968;8.844;2022-08-19T06:21:10;22.90;99.90
20891;DHT22;10605;52.968;8.844;2022-08-19T06:23:36;23.20;99.90
20891;DHT22;10605;52.968;8.844;2022-08-19T06:26:01;23.40;99.90
20891;DHT22;10605;52.968;8.844;2022-08-19T06:28:27;23.40;99.90
20891;DHT22;10605;52.968;8.844;2022-08-19T06:30:58;24.00;99.90
20891;DHT22;10605;52.968;8.844;2022-08-19T06:33:24;24.70;99.90
20891;DHT22;10605;52.968;8.844;2022-08-19T06:35:49;25.30;99.90
20891;DHT22;10605;52.968;8.844;2022-08-19T06:38:15;25.50;99.90
20891;DHT22;10605;52.968;8.844;2022-08-19T06:40:41;25.50;99.90
20891;DHT22;10605;52.968;8.844;2022-08-19T06:43:07;25.20;99.90
20891;DHT22;10605;52.968;8.844;2022-08-19T06:45:32;25.40;99.90
20891;DHT22;10605;52.968;8.844;2022-08-19T06:47:58;24.60;99.90
20891;DHT22;10605;52.968;8.844;2022-08-19T06:50:24;24.60;99.90
20891;DHT22;10605;52.968;8.844;2022-08-19T06:52:50;25.20;99.90
20891;DHT22;10605;52.968;8.844;2022-08-19T06:55:16;25.20;99.90
20891;DHT22;10605;52.968;8.844;2022-08-19T06:57:42;25.30;99.90
20891;DHT22;10605;52.968;8.844;2022-08-19T07:00:09;25.80;99.90
20891;DHT22;10605;52.968;8.844;2022-08-19T07:02:44;25.90;99.90
20891;DHT22;10605;52.968;8.844;2022-08-19T07:05:10;26.40;99.90
20891;DHT22;10605;52.968;8.844;2022-08-19T07:07:35;27.40;99.90
20891;DHT22;10605;52.968;8.844;2022-08-19T07:10:02;28.10;99.90
20891;DHT22;10605;52.968;8.844;2022-08-19T07:12:30;28.70;99.90
20891;DHT22;10605;52.968;8.844;2022-08-19T07:14:59;28.50;99.90
20891;DHT22;10605;52.968;8.844;2022-08-19T07:17:26;27.70;99.90
20891;DHT22;10605;52.968;8.844;2022-08-19T07:19:52;27.70;99.90
20891;DHT22;10605;52.968;8.844;2022-08-19T07:22:18;28.40;99.90
20891;DHT22;10605;52.968;8.844;2022-08-19T07:24:46;28.10;99.90
20891;DHT22;10605;52.968;8.844;2022-08-19T07:27:14;27.90;99.90
20891;DHT22;10605;52.968;8.844;2022-08-19T07:29:40;26.70;99.90
20891;DHT22;10605;52.968;8.844;2022-08-19T07:32:06;26.00;99.90
20891;DHT22;10605;52.968;8.844;2022-08-19T07:34:32;26.30;99.90
20891;DHT22;10605;52.968;8.844;2022-08-19T07:37:05;26.70;99.90
20891;DHT22;10605;52.968;8.844;2022-08-19T07:39:34;27.20;99.90
20891;DHT22;10605;52.968;8.844;2022-08-19T07:42:01;27.70;99.90
20891;DHT22;10605;52.968;8.844;2022-08-19T07:44:27;27.60;99.90
20891;DHT22;10605;52.968;8.844;2022-08-19T07:46:55;28.50;99.90
20891;DHT22;10605;52.968;8.844;2022-08-19T07:49:22;28.90;99.90
20891;DHT22;10605;52.968;8.844;2022-08-19T07:51:51;29.70;99.90
20891;DHT22;10605;52.968;8.844;2022-08-19T07:54:18;30.30;99.90
20891;DHT22;10605;52.968;8.844;2022-08-19T07:56:43;30.30;99.90
20891;DHT22;10605;52.968;8.844;2022-08-19T07:59:09;30.60;99.90
20891;DHT22;10605;52.968;8.844;2022-08-19T08:01:35;31.00;97.60
20891;DHT22;10605;52.968;8.844;2022-08-19T08:04:01;31.00;96.70
20891;DHT22;10605;52.968;8.844;2022-08-19T08:06:45;31.80;93.40
20891;DHT22;10605;52.968;8.844;2022-08-19T08:09:37;31.90;92.00
20891;DHT22;10605;52.968;8.844;2022-08-19T08:12:09;32.00;89.20
20891;DHT22;10605;52.968;8.844;2022-08-19T08:14:42;32.30;89.70
20891;DHT22;10605;52.968;8.844;2022-08-19T08:17:10;32.40;87.40
20891;DHT22;10605;52.968;8.844;2022-08-19T08:19:36;32.00;91.60
20891;DHT22;10605;52.968;8.844;2022-08-19T08:22:03;33.80;84.60
20891;DHT22;10605;52.968;8.844;2022-08-19T08:24:31;34.40;77.40
20891;DHT22;10605;52.968;8.844;2022-08-19T08:26:58;33.80;76.20
20891;DHT22;10605;52.968;8.844;2022-08-19T08:29:29;34.00;72.20
20891;DHT22;10605;52.968;8.844;2022-08-19T08:31:55;33.70;74.10
20891;DHT22;10605;52.968;8.844;2022-08-19T08:34:21;34.20;69.30
20891;DHT22;10605;52.968;8.844;2022-08-19T08:36:47;34.40;66.70
20891;DHT22;10605;52.968;8.844;2022-08-19T08:39:19;31.60;70.90
20891;DHT22;10605;52.968;8.844;2022-08-19T08:42:08;32.60;72.70
20891;DHT22;10605;52.968;8.844;2022-08-19T08:47:22;34.30;70.70
20891;DHT22;10605;52.968;8.844;2022-08-19T08:49:54;34.10;62.80
20891;DHT22;10605;52.968;8.844;2022-08-19T08:52:25;35.00;61.20
20891;DHT22;10605;52.968;8.844;2022-08-19T08:54:54;36.20;59.60
20891;DHT22;10605;52.968;8.844;2022-08-19T08:57:36;35.30;57.20
20891;DHT22;10605;52.968;8.844;2022-08-19T09:00:07;34.90;59.60
20891;DHT22;10605;52.968;8.844;2022-08-19T09:02:33;34.50;58.60
20891;DHT22;10605;52.968;8.844;2022-08-19T09:04:59;35.70;57.30
20891;DHT22;10605;52.968;8.844;2022-08-19T09:10:39;35.50;56.70
20891;DHT22;10605;52.968;8.844;2022-08-19T09:15:48;35.40;54.70
20891;DHT22;10605;52.968;8.844;2022-08-19T09:18:16;36.40;54.80
20891;DHT22;10605;52.968;8.844;2022-08-19T09:20:42;37.50;49.70
20891;DHT22;10605;52.968;8.844;2022-08-19T09:23:08;37.30;49.30
20891;DHT22;10605;52.968;8.844;2022-08-19T09:25:36;37.90;46.80
20891;DHT22;10605;52.968;8.844;2022-08-19T09:28:01;37.80;45.20
20891;DHT22;10605;52.968;8.844;2022-08-19T09:30:32;36.20;45.60
20891;DHT22;10605;52.968;8.844;2022-08-19T09:32:58;34.60;48.10
20891;DHT22;10605;52.968;8.844;2022-08-19T09:35:26;32.70;49.40
20891;DHT22;10605;52.968;8.844;2022-08-19T09:37:55;32.40;49.00
20891;DHT22;10605;52.968;8.844;2022-08-19T09:40:22;31.20;52.90
20891;DHT22;10605;52.968;8.844;2022-08-19T09:42:48;31.60;56.30
20891;DHT22;10605;52.968;8.844;2022-08-19T09:45:15;34.10;55.80
20891;DHT22;10605;52.968;8.844;2022-08-19T09:47:41;35.60;51.40
20891;DHT22;10605;52.968;8.844;2022-08-19T09:50:10;36.60;51.90
20891;DHT22;10605;52.968;8.844;2022-08-19T09:52:36;37.40;47.40
20891;DHT22;10605;52.968;8.844;2022-08-19T09:55:07;36.80;48.00
20891;DHT22;10605;52.968;8.844;2022-08-19T09:57:33;36.50;46.60
20891;DHT22;10605;52.968;8.844;2022-08-19T09:59:59;37.00;47.90
20891;DHT22;10605;52.968;8.844;2022-08-19T10:02:25;36.70;44.40
20891;DHT22;10605;52.968;8.844;2022-08-19T10:04:51;37.20;45.10
20891;DHT22;10605;52.968;8.844;2022-08-19T10:07:36;36.90;44.50
20891;DHT22;10605;52.968;8.844;2022-08-19T10:10:06;38.30;45.10
20891;DHT22;10605;52.968;8.844;2022-08-19T10:12:33;38.50;42.60
20891;DHT22;10605;52.968;8.844;2022-08-19T10:14:59;38.30;42.50
20891;DHT22;10605;52.968;8.844;2022-08-19T10:17:25;38.70;40.10
20891;DHT22;10605;52.968;8.844;2022-08-19T10:19:52;39.80;38.20
20891;DHT22;10605;52.968;8.844;2022-08-19T10:22:18;39.50;35.40
20891;DHT22;10605;52.968;8.844;2022-08-19T10:24:47;39.40;38.50
20891;DHT22;10605;52.968;8.844;2022-08-19T10:27:13;38.80;38.60
20891;DHT22;10605;52.968;8.844;2022-08-19T10:29:41;39.70;34.30
20891;DHT22;10605;52.968;8.844;2022-08-19T10:32:08;38.30;33.30
20891;DHT22;10605;52.968;8.844;2022-08-19T10:34:36;39.10;34.90
20891;DHT22;10605;52.968;8.844;2022-08-19T10:37:04;39.90;33.10
20891;DHT22;10605;52.968;8.844;2022-08-19T10:39:33;39.30;32.90
20891;DHT22;10605;52.968;8.844;2022-08-19T10:42:03;39.70;34.40
20891;DHT22;10605;52.968;8.844;2022-08-19T10:44:29;39.60;30.70
20891;DHT22;10605;52.968;8.844;2022-08-19T10:46:55;40.30;29.50
20891;DHT22;10605;52.968;8.844;2022-08-19T10:49:21;40.60;30.30
20891;DHT22;10605;52.968;8.844;2022-08-19T10:51:48;39.70;29.90
20891;DHT22;10605;52.968;8.844;2022-08-19T10:54:33;39.60;29.20
20891;DHT22;10605;52.968;8.844;2022-08-19T10:57:17;39.80;28.50
20891;DHT22;10605;52.968;8.844;2022-08-19T10:59:43;38.90;31.30
20891;DHT22;10605;52.968;8.844;2022-08-19T11:02:10;39.90;30.50
20891;DHT22;10605;52.968;8.844;2022-08-19T11:04:37;40.50;28.40
20891;DHT22;10605;52.968;8.844;2022-08-19T11:07:04;39.30;29.00
20891;DHT22;10605;52.968;8.844;2022-08-19T11:09:31;41.10;28.80
20891;DHT22;10605;52.968;8.844;2022-08-19T11:11:56;40.70;28.50
20891;DHT22;10605;52.968;8.844;2022-08-19T11:14:23;41.90;28.50
20891;DHT22;10605;52.968;8.844;2022-08-19T11:16:51;41.50;27.30
20891;DHT22;10605;52.968;8.844;2022-08-19T11:19:18;42.10;26.30
20891;DHT22;10605;52.968;8.844;2022-08-19T11:21:47;41.40;26.90
20891;DHT22;10605;52.968;8.844;2022-08-19T11:24:16;40.80;25.90
20891;DHT22;10605;52.968;8.844;2022-08-19T11:26:43;40.70;26.30
20891;DHT22;10605;52.968;8.844;2022-08-19T11:29:10;41.50;25.10
20891;DHT22;10605;52.968;8.844;2022-08-19T11:31:37;41.00;25.80
20891;DHT22;10605;52.968;8.844;2022-08-19T11:34:07;39.90;25.30
20891;DHT22;10605;52.968;8.844;2022-08-19T11:36:33;38.80;26.90
20891;DHT22;10605;52.968;8.844;2022-08-19T11:39:00;38.80;28.10
20891;DHT22;10605;52.968;8.844;2022-08-19T11:41:27;39.60;27.60
20891;DHT22;10605;52.968;8.844;2022-08-19T11:43:53;40.60;26.00
20891;DHT22;10605;52.968;8.844;2022-08-19T11:46:22;41.20;25.80
20891;DHT22;10605;52.968;8.844;2022-08-19T11:48:48;41.50;22.60
20891;DHT22;10605;52.968;8.844;2022-08-19T11:51:20;42.70;22.10
20891;DHT22;10605;52.968;8.844;2022-08-19T11:53:47;41.60;22.30
20891;DHT22;10605;52.968;8.844;2022-08-19T11:56:13;42.00;20.70
20891;DHT22;10605;52.968;8.844;2022-08-19T11:58:39;41.70;21.50
20891;DHT22;10605;52.968;8.844;2022-08-19T12:01:11;41.40;22.70
20891;DHT22;10605;52.968;8.844;2022-08-19T12:03:38;42.10;20.60
20891;DHT22;10605;52.968;8.844;2022-08-19T12:06:09;41.60;21.30
20891;DHT22;10605;52.968;8.844;2022-08-19T12:08:36;41.80;20.50
20891;DHT22;10605;52.968;8.844;2022-08-19T12:11:01;41.20;21.40
20891;DHT22;10605;52.968;8.844;2022-08-19T12:13:29;42.40;19.20
20891;DHT22;10605;52.968;8.844;2022-08-19T12:15:55;41.40;20.90
20891;DHT22;10605;52.968;8.844;2022-08-19T12:18:21;43.10;19.80
20891;DHT22;10605;52.968;8.844;2022-08-19T12:20:47;42.90;19.70
20891;DHT22;10605;52.968;8.844;2022-08-19T12:23:13;43.10;19.70
20891;DHT22;10605;52.968;8.844;2022-08-19T12:25:45;42.20;19.40
20891;DHT22;10605;52.968;8.844;2022-08-19T12:28:19;41.50;18.90
20891;DHT22;10605;52.968;8.844;2022-08-19T12:30:46;41.80;21.40
20891;DHT22;10605;52.968;8.844;2022-08-19T12:33:11;42.90;19.10
20891;DHT22;10605;52.968;8.844;2022-08-19T12:35:43;42.40;18.60
20891;DHT22;10605;52.968;8.844;2022-08-19T12:38:09;41.50;18.40
20891;DHT22;10605;52.968;8.844;2022-08-19T12:40:35;41.80;19.00
20891;DHT22;10605;52.968;8.844;2022-08-19T12:43:01;41.60;19.40
20891;DHT22;10605;52.968;8.844;2022-08-19T12:45:27;43.00;19.20
20891;DHT22;10605;52.968;8.844;2022-08-19T12:47:52;42.40;17.40
20891;DHT22;10605;52.968;8.844;2022-08-19T12:50:18;42.00;20.00
20891;DHT22;10605;52.968;8.844;2022-08-19T12:52:44;41.60;19.90
20891;DHT22;10605;52.968;8.844;2022-08-19T12:55:10;41.40;20.30
20891;DHT22;10605;52.968;8.844;2022-08-19T12:57:37;42.00;18.10
20891;DHT22;10605;52.968;8.844;2022-08-19T13:00:12;41.60;18.60
20891;DHT22;10605;52.968;8.844;2022-08-19T13:02:40;41.10;19.60
20891;DHT22;10605;52.968;8.844;2022-08-19T13:05:08;41.90;19.40
20891;DHT22;10605;52.968;8.844;2022-08-19T13:07:34;41.20;19.00
20891;DHT22;10605;52.968;8.844;2022-08-19T13:10:00;40.30;20.20
20891;DHT22;10605;52.968;8.844;2022-08-19T13:12:26;40.30;20.10
20891;DHT22;10605;52.968;8.844;2022-08-19T13:14:53;40.30;20.00
20891;DHT22;10605;52.968;8.844;2022-08-19T13:17:19;36.20;23.10
20891;DHT22;10605;52.968;8.844;2022-08-19T13:19:45;33.80;26.90
20891;DHT22;10605;52.968;8.844;2022-08-19T13:22:10;31.60;30.90
20891;DHT22;10605;52.968;8.844;2022-08-19T13:24:36;30.20;33.70
20891;DHT22;10605;52.968;8.844;2022-08-19T13:27:02;29.50;36.70
20891;DHT22;10605;52.968;8.844;2022-08-19T13:29:28;29.10;37.40
20891;DHT22;10605;52.968;8.844;2022-08-19T13:32:12;29.00;38.60
20891;DHT22;10605;52.968;8.844;2022-08-19T13:34:57;28.40;39.40
20891;DHT22;10605;52.968;8.844;2022-08-19T13:37:22;28.00;39.00
20891;DHT22;10605;52.968;8.844;2022-08-19T13:40:08;27.70;40.40
20891;DHT22;10605;52.968;8.844;2022-08-19T13:42:40;27.70;41.10
20891;DHT22;10605;52.968;8.844;2022-08-19T13:45:06;27.60;42.20
20891;DHT22;10605;52.968;8.844;2022-08-19T13:47:33;27.50;41.70
20891;DHT22;10605;52.968;8.844;2022-08-19T13:50:09;27.20;42.30
20891;DHT22;10605;52.968;8.844;2022-08-19T13:52:36;27.30;43.30
20891;DHT22;10605;52.968;8.844;2022-08-19T13:55:02;27.40;43.60
20891;DHT22;10605;52.968;8.844;2022-08-19T13:57:29;27.30;43.20
20891;DHT22;10605;52.968;8.844;2022-08-19T13:59:57;27.30;44.30
20891;DHT22;10605;52.968;8.844;2022-08-19T14:02:23;27.20;45.90
20891;DHT22;10605;52.968;8.844;2022-08-19T14:04:49;27.10;44.90
20891;DHT22;10605;52.968;8.844;2022-08-19T14:07:15;27.00;45.90
20891;DHT22;10605;52.968;8.844;2022-08-19T14:09:41;27.10;47.10
20891;DHT22;10605;52.968;8.844;2022-08-19T14:12:06;27.20;46.10
20891;DHT22;10605;52.968;8.844;2022-08-19T14:14:36;27.30;45.90
20891;DHT22;10605;52.968;8.844;2022-08-19T14:17:06;27.40;44.80
20891;DHT22;10605;52.968;8.844;2022-08-19T14:19:31;27.30;45.60
20891;DHT22;10605;52.968;8.844;2022-08-19T14:21:57;27.20;46.60
20891;DHT22;10605;52.968;8.844;2022-08-19T14:24:23;27.00;48.60
20891;DHT22;10605;52.968;8.844;2022-08-19T14:26:48;27.20;48.00
20891;DHT22;10605;52.968;8.844;2022-08-19T14:29:14;27.10;46.70
20891;DHT22;10605;52.968;8.844;2022-08-19T14:31:40;27.10;45.30
20891;DHT22;10605;52.968;8.844;2022-08-19T14:34:07;27.10;46.80
20891;DHT22;10605;52.968;8.844;2022-08-19T14:36:35;27.10;48.30
20891;DHT22;10605;52.968;8.844;2022-08-19T14:39:01;27.00;47.60
20891;DHT22;10605;52.968;8.844;2022-08-19T14:41:27;27.10;48.30
20891;DHT22;10605;52.968;8.844;2022-08-19T14:43:54;27.20;48.30
20891;DHT22;10605;52.968;8.844;2022-08-19T14:46:22;27.00;48.70
20891;DHT22;10605;52.968;8.844;2022-08-19T14:48:49;27.10;49.00
20891;DHT22;10605;52.968;8.844;2022-08-19T14:51:16;27.10;49.20
20891;DHT22;10605;52.968;8.844;2022-08-19T14:53:42;27.00;49.70
20891;DHT22;10605;52.968;8.844;2022-08-19T14:56:11;27.00;49.60
20891;DHT22;10605;52.968;8.844;2022-08-19T14:58:38;27.00;50.80
20891;DHT22;10605;52.968;8.844;2022-08-19T15:01:06;26.90;51.10
20891;DHT22;10605;52.968;8.844;2022-08-19T15:03:32;26.90;52.80
20891;DHT22;10605;52.968;8.844;2022-08-19T15:06:00;26.90;52.00
20891;DHT22;10605;52.968;8.844;2022-08-19T15:08:27;26.90;52.10
20891;DHT22;10605;52.968;8.844;2022-08-19T15:10:53;26.70;51.80
20891;DHT22;10605;52.968;8.844;2022-08-19T15:13:19;26.80;52.10
20891;DHT22;10605;52.968;8.844;2022-08-19T15:15:44;26.80;51.80
20891;DHT22;10605;52.968;8.844;2022-08-19T15:18:13;26.80;53.60
20891;DHT22;10605;52.968;8.844;2022-08-19T15:20:39;26.90;54.20
20891;DHT22;10605;52.968;8.844;2022-08-19T15:23:05;27.00;54.00
20891;DHT22;10605;52.968;8.844;2022-08-19T15:25:31;26.90;54.50
20891;DHT22;10605;52.968;8.844;2022-08-19T15:27:57;26.70;55.50
20891;DHT22;10605;52.968;8.844;2022-08-19T15:30:27;26.70;54.50
20891;DHT22;10605;52.968;8.844;2022-08-19T15:32:54;26.60;56.00
20891;DHT22;10605;52.968;8.844;2022-08-19T15:35:21;26.50;55.40
20891;DHT22;10605;52.968;8.844;2022-08-19T15:37:51;26.70;56.70
20891;DHT22;10605;52.968;8.844;2022-08-19T15:40:18;26.80;55.50
20891;DHT22;10605;52.968;8.844;2022-08-19T15:42:44;26.70;56.30
20891;DHT22;10605;52.968;8.844;2022-08-19T15:45:13;26.80;58.00